createdAt,value
2024-03-13T00:00:59.615Z,10.39
2024-03-13T00:01:59.784Z,10.37
2024-03-13T00:03:00.030Z,10.36
2024-03-13T00:04:00.025Z,10.36
2024-03-13T00:05:00.085Z,10.37
2024-03-13T00:06:00.260Z,10.35
2024-03-13T00:07:00.378Z,10.35
2024-03-13T00:08:00.464Z,10.33
2024-03-13T00:09:00.612Z,10.33
2024-03-13T00:10:00.793Z,10.32
2024-03-13T00:11:01.031Z,10.31
2024-03-13T00:12:01.017Z,10.32
2024-03-13T00:13:01.184Z,10.37
2024-03-13T00:14:01.285Z,10.39
2024-03-13T00:15:01.434Z,10.36
2024-03-13T00:16:01.659Z,10.33
2024-03-13T00:17:01.698Z,10.29
2024-03-13T00:18:01.938Z,10.26
2024-03-13T00:19:02.097Z,10.26
2024-03-13T00:20:02.304Z,10.28
2024-03-13T00:21:02.406Z,10.24
2024-03-13T00:22:02.604Z,10.20
2024-03-13T00:23:02.738Z,10.20
2024-03-13T00:24:02.921Z,10.21
2024-03-13T00:25:03.088Z,10.22
2024-03-13T00:26:03.218Z,10.20
2024-03-13T00:27:03.371Z,10.17
2024-03-13T00:28:03.632Z,10.17
2024-03-13T00:29:03.735Z,10.17
2024-03-13T00:30:03.954Z,10.17
2024-03-13T00:31:04.090Z,10.16
2024-03-13T00:32:04.227Z,10.15
2024-03-13T00:33:04.442Z,10.14
2024-03-13T00:34:04.563Z,10.13
2024-03-13T00:35:04.727Z,10.11
2024-03-13T00:36:04.856Z,10.11
2024-03-13T00:37:05.110Z,10.14
2024-03-13T00:38:05.335Z,10.18
2024-03-13T00:39:05.350Z,10.20
2024-03-13T00:40:05.603Z,10.16
2024-03-13T00:41:05.670Z,10.14
2024-03-13T00:42:05.802Z,10.16
2024-03-13T00:43:05.905Z,10.19
2024-03-13T00:44:05.991Z,10.21
2024-03-13T00:45:06.059Z,10.21
2024-03-13T00:46:06.252Z,10.21
2024-03-13T00:47:06.336Z,10.25
2024-03-13T00:48:06.371Z,10.24
2024-03-13T00:49:06.488Z,10.23
2024-03-13T00:50:06.566Z,10.21
2024-03-13T00:51:06.680Z,10.20
2024-03-13T00:52:06.890Z,10.18
2024-03-13T00:53:06.875Z,10.18
2024-03-13T00:54:06.983Z,10.18
2024-03-13T00:55:07.118Z,10.19
2024-03-13T00:56:07.198Z,10.19
2024-03-13T00:57:07.374Z,10.18
2024-03-13T00:58:07.467Z,10.18
2024-03-13T00:59:07.490Z,10.20
2024-03-13T01:00:07.599Z,10.22
2024-03-13T01:01:07.713Z,10.24
2024-03-13T01:02:07.817Z,10.24
2024-03-13T01:03:10.151Z,10.22
2024-03-13T01:04:07.993Z,10.22
2024-03-13T01:05:08.140Z,10.23
2024-03-13T01:06:08.216Z,10.22
2024-03-13T01:07:08.652Z,10.23
2024-03-13T01:08:08.375Z,10.26
2024-03-13T01:09:08.466Z,10.23
2024-03-13T01:10:08.641Z,10.20
2024-03-13T01:11:08.698Z,10.19
2024-03-13T01:12:08.773Z,10.18
2024-03-13T01:13:08.932Z,10.15
2024-03-13T01:14:09.012Z,10.16
2024-03-13T01:15:09.122Z,10.14
2024-03-13T01:16:09.169Z,10.13
2024-03-13T01:17:09.246Z,10.15
2024-03-13T01:18:09.395Z,10.22
2024-03-13T01:19:09.653Z,10.27
2024-03-13T01:20:09.610Z,10.28
2024-03-13T01:21:09.617Z,10.26
2024-03-13T01:22:09.770Z,10.23
2024-03-13T01:23:09.847Z,10.24
2024-03-13T01:24:09.986Z,10.28
2024-03-13T01:25:10.045Z,10.29
2024-03-13T01:26:10.097Z,10.31
2024-03-13T01:27:10.227Z,10.36
2024-03-13T01:28:10.502Z,10.33
2024-03-13T01:29:10.406Z,10.33
2024-03-13T01:30:10.504Z,10.37
2024-03-13T01:31:10.667Z,10.37
2024-03-13T01:32:10.703Z,10.39
2024-03-13T01:33:10.808Z,10.35
2024-03-13T01:34:10.890Z,10.34
2024-03-13T01:35:10.991Z,10.33
2024-03-13T01:36:11.085Z,10.33
2024-03-13T01:37:11.262Z,10.33
2024-03-13T01:38:11.397Z,10.31
2024-03-13T01:39:11.592Z,10.31
2024-03-13T01:40:11.783Z,10.31
2024-03-13T01:41:11.791Z,10.33
2024-03-13T01:42:11.951Z,10.36
2024-03-13T01:43:12.061Z,10.42
2024-03-13T01:44:12.165Z,10.45
2024-03-13T01:45:12.306Z,10.41
2024-03-13T01:46:12.534Z,10.40
2024-03-13T01:47:12.603Z,10.36
2024-03-13T01:48:12.713Z,10.36
2024-03-13T01:49:12.865Z,10.33
2024-03-13T01:50:12.992Z,10.28
2024-03-13T01:51:13.088Z,10.27
2024-03-13T01:52:13.311Z,10.29
2024-03-13T01:53:13.370Z,10.28
2024-03-13T01:54:13.555Z,10.26
2024-03-13T01:55:13.700Z,10.20
2024-03-13T01:56:13.832Z,10.18
2024-03-13T01:57:14.020Z,10.19
2024-03-13T01:58:14.191Z,10.16
2024-03-13T01:59:14.338Z,10.14
2024-03-13T02:00:14.473Z,10.10
2024-03-13T02:01:14.765Z,10.08
2024-03-13T02:02:14.755Z,10.03
2024-03-13T02:03:14.833Z,10.00
2024-03-13T02:04:14.885Z,9.96
2024-03-13T02:05:15.072Z,9.94
2024-03-13T02:06:15.138Z,9.92
2024-03-13T02:07:15.316Z,9.93
2024-03-13T02:08:15.453Z,9.91
2024-03-13T02:09:15.548Z,9.91
2024-03-13T02:10:15.802Z,9.89
2024-03-13T02:11:15.892Z,9.88
2024-03-13T02:12:15.986Z,9.86
2024-03-13T02:13:16.206Z,9.84
2024-03-13T02:14:16.322Z,9.80
2024-03-13T02:15:16.516Z,9.80
2024-03-13T02:16:16.731Z,9.78
2024-03-13T02:17:16.795Z,9.78
2024-03-13T02:18:17.018Z,9.77
2024-03-13T02:19:17.155Z,9.76
2024-03-13T02:20:17.277Z,9.76
2024-03-13T02:21:17.455Z,9.82
2024-03-13T02:22:17.689Z,9.82
2024-03-13T02:23:17.765Z,9.79
2024-03-13T02:24:17.900Z,9.79
2024-03-13T02:25:18.127Z,9.77
2024-03-13T02:26:18.290Z,9.81
2024-03-13T02:27:18.340Z,9.83
2024-03-13T02:28:18.479Z,9.86
2024-03-13T02:29:18.528Z,9.85
2024-03-13T02:30:18.712Z,9.82
2024-03-13T02:31:18.878Z,9.84
2024-03-13T02:32:18.857Z,9.88
2024-03-13T02:33:19.044Z,9.90
2024-03-13T02:34:19.240Z,9.89
2024-03-13T02:35:19.373Z,9.88
2024-03-13T02:36:19.594Z,9.85
2024-03-13T02:37:19.794Z,9.85
2024-03-13T02:38:19.929Z,9.86
2024-03-13T02:39:20.233Z,9.85
2024-03-13T02:40:20.205Z,9.82
2024-03-13T02:41:20.370Z,9.81
2024-03-13T02:42:20.363Z,9.80
2024-03-13T02:43:20.677Z,9.85
2024-03-13T02:44:20.573Z,9.88
2024-03-13T02:45:20.704Z,9.89
2024-03-13T02:46:20.853Z,9.90
2024-03-13T02:47:20.899Z,9.90
2024-03-13T02:48:21.017Z,9.87
2024-03-13T02:49:21.194Z,9.83
2024-03-13T02:50:21.236Z,9.87
2024-03-13T02:51:21.337Z,9.89
2024-03-13T02:52:21.498Z,9.89
2024-03-13T02:53:21.575Z,9.85
2024-03-13T02:54:21.667Z,9.83
2024-03-13T02:55:21.863Z,9.80
2024-03-13T02:56:21.881Z,9.79
2024-03-13T02:57:21.982Z,9.81
2024-03-13T02:58:22.244Z,9.83
2024-03-13T02:59:22.206Z,9.84
2024-03-13T03:00:22.325Z,9.81
2024-03-13T03:01:22.536Z,9.82
2024-03-13T03:02:22.690Z,9.78
2024-03-13T03:03:22.717Z,9.79
2024-03-13T03:04:22.898Z,9.78
2024-03-13T03:05:22.993Z,9.76
2024-03-13T03:06:23.084Z,9.75
2024-03-13T03:07:23.347Z,9.73
2024-03-13T03:08:23.304Z,9.74
2024-03-13T03:09:23.510Z,9.73
2024-03-13T03:10:23.723Z,9.74
2024-03-13T03:11:23.740Z,9.72
2024-03-13T03:12:23.922Z,9.67
2024-03-13T03:13:24.103Z,9.66
2024-03-13T03:14:24.200Z,9.64
2024-03-13T03:15:24.383Z,9.66
2024-03-13T03:16:24.570Z,9.63
2024-03-13T03:17:24.735Z,9.63
2024-03-13T03:18:24.863Z,9.69
2024-03-13T03:19:25.107Z,9.71
2024-03-13T03:20:25.118Z,9.69
2024-03-13T03:21:25.221Z,9.70
2024-03-13T03:22:25.439Z,9.65
2024-03-13T03:23:25.449Z,9.65
2024-03-13T03:24:25.580Z,9.73
2024-03-13T03:25:26.158Z,9.76
2024-03-13T03:26:25.878Z,9.80
2024-03-13T03:27:25.953Z,9.77
2024-03-13T03:28:26.118Z,9.77
2024-03-13T03:29:26.146Z,9.77
2024-03-13T03:30:26.357Z,9.85
2024-03-13T03:31:26.520Z,9.91
2024-03-13T03:32:26.991Z,9.94
2024-03-13T03:33:26.812Z,9.89
2024-03-13T03:34:27.080Z,9.90
2024-03-13T03:35:27.250Z,9.88
2024-03-13T03:36:27.355Z,9.89
2024-03-13T03:37:27.560Z,9.92
2024-03-13T03:38:27.676Z,9.88
2024-03-13T03:39:27.725Z,9.85
2024-03-13T03:40:27.968Z,9.80
2024-03-13T03:41:27.954Z,9.76
2024-03-13T03:42:28.120Z,9.71
2024-03-13T03:43:28.342Z,9.70
2024-03-13T03:44:28.264Z,9.75
2024-03-13T03:45:28.440Z,9.75
2024-03-13T03:46:28.590Z,9.73
2024-03-13T03:47:28.710Z,9.72
2024-03-13T03:48:28.961Z,9.69
2024-03-13T03:49:28.920Z,9.66
2024-03-13T03:50:28.989Z,9.68
2024-03-13T03:51:29.091Z,9.66
2024-03-13T03:52:29.216Z,9.64
2024-03-13T03:53:29.359Z,9.62
2024-03-13T03:54:29.481Z,9.63
2024-03-13T03:55:29.632Z,9.60
2024-03-13T03:56:30.454Z,9.55
2024-03-13T03:57:29.910Z,9.55
2024-03-13T03:58:30.126Z,9.56
2024-03-13T03:59:30.166Z,9.63
2024-03-13T04:00:30.303Z,9.65
2024-03-13T04:01:30.516Z,9.65
2024-03-13T04:02:30.547Z,9.71
2024-03-13T04:03:30.609Z,9.74
2024-03-13T04:04:30.815Z,9.74
2024-03-13T04:05:30.873Z,9.73
2024-03-13T04:06:30.975Z,9.72
2024-03-13T04:07:31.144Z,9.73
2024-03-13T04:08:31.214Z,9.70
2024-03-13T04:09:31.339Z,9.69
2024-03-13T04:10:31.513Z,9.72
2024-03-13T04:11:31.561Z,9.77
2024-03-13T04:12:31.668Z,9.81
2024-03-13T04:13:32.910Z,9.79
2024-03-13T04:14:31.894Z,9.72
2024-03-13T04:15:32.071Z,9.69
2024-03-13T04:16:32.219Z,9.63
2024-03-13T04:17:32.269Z,9.62
2024-03-13T04:18:32.407Z,9.64
2024-03-13T04:19:32.520Z,9.69
2024-03-13T04:20:32.678Z,9.74
2024-03-13T04:21:32.738Z,9.75
2024-03-13T04:22:32.915Z,9.71
2024-03-13T04:23:32.956Z,9.69
2024-03-13T04:24:33.055Z,9.71
2024-03-13T04:25:33.254Z,9.74
2024-03-13T04:26:33.394Z,9.70
2024-03-13T04:27:33.546Z,9.67
2024-03-13T04:28:33.702Z,9.57
2024-03-13T04:29:39.076Z,9.59
2024-03-13T04:30:35.000Z,9.60
2024-03-13T04:31:34.048Z,9.56
2024-03-13T04:32:34.099Z,9.52
2024-03-13T04:33:34.198Z,9.52
2024-03-13T04:34:34.364Z,9.49
2024-03-13T04:35:34.423Z,9.45
2024-03-13T04:36:34.472Z,9.50
2024-03-13T04:37:34.622Z,9.48
2024-03-13T04:38:34.738Z,9.43
2024-03-13T04:39:34.815Z,9.44
2024-03-13T04:40:34.984Z,9.49
2024-03-13T04:41:34.976Z,9.46
2024-03-13T04:42:35.089Z,9.46
2024-03-13T04:43:35.224Z,9.50
2024-03-13T04:44:35.323Z,9.51
2024-03-13T04:45:35.422Z,9.55
2024-03-13T04:46:35.588Z,9.54
2024-03-13T04:47:39.549Z,9.52
2024-03-13T04:48:36.770Z,9.54
2024-03-13T04:49:35.924Z,9.56
2024-03-13T04:50:35.976Z,9.54
2024-03-13T04:51:36.106Z,9.56
2024-03-13T04:52:36.137Z,9.61
2024-03-13T04:53:36.282Z,9.63
2024-03-13T04:54:36.370Z,9.64
2024-03-13T04:55:36.510Z,9.64
2024-03-13T04:56:36.594Z,9.61
2024-03-13T04:57:36.656Z,9.60
2024-03-13T04:58:36.757Z,9.59
2024-03-13T04:59:36.872Z,9.62
2024-03-13T05:00:36.997Z,9.61
2024-03-13T05:01:37.151Z,9.60
2024-03-13T05:02:40.419Z,9.67
2024-03-13T05:03:48.829Z,9.65
2024-03-13T05:04:48.773Z,9.71
2024-03-13T05:05:48.816Z,9.73
2024-03-13T05:06:48.845Z,9.74
2024-03-13T05:07:48.807Z,9.67
2024-03-13T05:08:48.794Z,9.67
2024-03-13T05:09:48.856Z,9.71
2024-03-13T05:10:48.906Z,9.75
2024-03-13T05:11:48.784Z,9.72
2024-03-13T05:12:48.825Z,9.67
2024-03-13T05:13:48.846Z,9.68
2024-03-13T05:14:48.813Z,9.67
2024-03-13T05:15:49.378Z,9.67
2024-03-13T05:16:48.823Z,9.67
2024-03-13T05:17:48.988Z,9.65
2024-03-13T05:18:48.882Z,9.61
2024-03-13T05:19:48.856Z,9.61
2024-03-13T05:20:48.834Z,9.60
2024-03-13T05:21:48.923Z,9.59
2024-03-13T05:22:48.961Z,9.62
2024-03-13T05:23:48.860Z,9.61
2024-03-13T05:24:48.900Z,9.60
2024-03-13T05:25:51.800Z,9.56
2024-03-13T05:26:48.883Z,9.57
2024-03-13T05:27:48.918Z,9.62
2024-03-13T05:28:48.898Z,9.65
2024-03-13T05:29:48.919Z,9.64
2024-03-13T05:30:48.966Z,9.66
2024-03-13T05:31:48.961Z,9.65
2024-03-13T05:32:48.990Z,9.59
2024-03-13T05:33:48.916Z,9.51
2024-03-13T05:34:48.981Z,9.46
2024-03-13T05:35:48.952Z,9.45
2024-03-13T05:36:48.993Z,9.48
2024-03-13T05:37:48.963Z,9.54
2024-03-13T05:38:48.979Z,9.60
2024-03-13T05:39:49.032Z,9.65
2024-03-13T05:40:49.006Z,9.64
2024-03-13T05:41:49.002Z,9.59
2024-03-13T05:42:49.026Z,9.52
2024-03-13T05:43:49.001Z,9.50
2024-03-13T05:44:49.009Z,9.53
2024-03-13T05:45:49.041Z,9.54
2024-03-13T05:46:49.027Z,9.57
2024-03-13T05:47:49.058Z,9.60
2024-03-13T05:48:49.110Z,9.61
2024-03-13T05:49:49.067Z,9.58
2024-03-13T05:50:49.050Z,9.56
2024-03-13T05:51:49.342Z,9.55
2024-03-13T05:52:49.068Z,9.57
2024-03-13T05:53:49.066Z,9.62
2024-03-13T05:54:49.076Z,9.57
2024-03-13T05:55:49.091Z,9.52
2024-03-13T05:56:49.048Z,9.56
2024-03-13T05:57:49.137Z,9.54
2024-03-13T05:58:49.054Z,9.53
2024-03-13T05:59:49.076Z,9.58
2024-03-13T06:02:18.100Z,9.36
2024-03-13T06:02:56.190Z,9.52
2024-03-13T06:03:55.360Z,9.57
2024-03-13T06:04:55.362Z,9.55
2024-03-13T06:05:55.348Z,9.56
2024-03-13T06:06:55.442Z,9.61
2024-03-13T06:07:55.375Z,9.69
2024-03-13T06:08:55.362Z,9.67
2024-03-13T06:09:55.388Z,9.64
2024-03-13T06:10:55.571Z,9.60
2024-03-13T06:11:55.347Z,9.52
2024-03-13T06:12:55.385Z,9.54
2024-03-13T06:13:55.410Z,9.53
2024-03-13T06:14:55.462Z,9.54
2024-03-13T06:15:55.627Z,9.53
2024-03-13T06:16:55.627Z,9.52
2024-03-13T06:17:55.657Z,9.48
2024-03-13T06:18:55.721Z,9.45
2024-03-13T06:19:55.710Z,9.47
2024-03-13T06:20:55.809Z,9.51
2024-03-13T06:21:55.871Z,9.56
2024-03-13T06:22:55.876Z,9.59
2024-03-13T06:23:55.988Z,9.58
2024-03-13T06:24:56.110Z,9.65
2024-03-13T06:25:56.102Z,9.67
2024-03-13T06:26:56.156Z,9.63
2024-03-13T06:27:56.185Z,9.59
2024-03-13T06:28:56.228Z,9.63
2024-03-13T06:29:56.310Z,9.66
2024-03-13T06:30:56.645Z,9.66
2024-03-13T06:31:56.436Z,9.68
2024-03-13T06:32:57.089Z,9.69
2024-03-13T06:33:56.905Z,9.65
2024-03-13T06:34:56.572Z,9.64
2024-03-13T06:35:57.065Z,9.65
2024-03-13T06:36:56.783Z,9.71
2024-03-13T06:37:56.754Z,9.73
2024-03-13T06:38:56.817Z,9.73
2024-03-13T06:39:57.015Z,9.71
2024-03-13T06:40:57.026Z,9.60
2024-03-13T06:41:56.982Z,9.57
2024-03-13T06:42:57.027Z,9.55
2024-03-13T06:43:57.050Z,9.58
2024-03-13T06:44:57.056Z,9.58
2024-03-13T06:47:27.725Z,9.40
2024-03-13T06:48:02.491Z,9.56
2024-03-13T06:49:02.347Z,9.63
2024-03-13T06:50:02.425Z,9.70
2024-03-13T06:51:02.637Z,9.72
2024-03-13T06:52:02.472Z,9.71
2024-03-13T06:53:02.438Z,9.74
2024-03-13T06:54:02.345Z,9.84
2024-03-13T06:55:02.508Z,9.87
2024-03-13T06:56:02.678Z,9.84
2024-03-13T06:57:02.565Z,9.85
2024-03-13T06:58:03.162Z,9.81
2024-03-13T06:59:02.404Z,9.76
2024-03-13T07:00:02.412Z,9.74
2024-03-13T07:01:02.773Z,9.81
2024-03-13T07:02:02.533Z,9.85
2024-03-13T07:03:02.419Z,9.90
2024-03-13T07:04:02.440Z,9.92
2024-03-13T07:05:02.425Z,9.89
2024-03-13T07:06:02.427Z,9.86
2024-03-13T07:07:02.509Z,9.86
2024-03-13T07:08:02.437Z,9.78
2024-03-13T07:09:02.458Z,9.81
2024-03-13T07:10:02.498Z,9.82
2024-03-13T07:11:02.497Z,9.70
2024-03-13T07:12:02.568Z,9.69
2024-03-13T07:13:02.485Z,9.75
2024-03-13T07:14:02.578Z,9.86
2024-03-13T07:15:02.582Z,9.88
2024-03-13T07:16:02.677Z,9.93
2024-03-13T07:17:02.610Z,9.84
2024-03-13T07:18:04.210Z,9.76
2024-03-13T07:19:02.645Z,9.76
2024-03-13T07:20:02.638Z,9.71
2024-03-13T07:21:03.141Z,9.71
2024-03-13T07:22:03.464Z,9.77
2024-03-13T07:23:02.750Z,9.77
2024-03-13T07:24:02.751Z,9.72
2024-03-13T07:25:02.808Z,9.74
2024-03-13T07:26:03.172Z,9.78
2024-03-13T07:27:02.797Z,9.84
2024-03-13T07:28:02.930Z,9.82
2024-03-13T07:29:02.899Z,9.80
2024-03-13T07:30:02.997Z,9.85
2024-03-13T07:31:03.181Z,9.95
2024-03-13T07:32:03.074Z,9.97
2024-03-13T07:33:03.157Z,10.03
2024-03-13T07:34:03.241Z,9.97
2024-03-13T07:35:03.152Z,10.01
2024-03-13T07:36:03.649Z,10.05
2024-03-13T07:37:03.289Z,10.09
2024-03-13T07:38:03.356Z,10.10
2024-03-13T07:39:03.404Z,10.06
2024-03-13T07:40:05.198Z,10.08
2024-03-13T07:41:03.789Z,10.09
2024-03-13T07:42:03.497Z,10.10
2024-03-13T07:43:03.636Z,10.11
2024-03-13T07:44:03.596Z,10.20
2024-03-13T07:45:03.632Z,10.21
2024-03-13T07:46:04.199Z,10.25
2024-03-13T07:47:03.654Z,10.26
2024-03-13T07:48:03.765Z,10.27
2024-03-13T07:49:04.184Z,10.28
2024-03-13T07:50:03.705Z,10.34
2024-03-13T07:51:04.591Z,10.34
2024-03-13T07:52:04.054Z,10.30
2024-03-13T07:53:03.824Z,10.35
2024-03-13T07:54:03.902Z,10.33
2024-03-13T07:55:03.964Z,10.38
2024-03-13T07:56:04.210Z,10.33
2024-03-13T07:57:03.953Z,10.23
2024-03-13T07:58:04.095Z,10.27
2024-03-13T07:59:03.962Z,10.33
2024-03-13T08:00:03.942Z,10.38
2024-03-13T08:01:04.122Z,10.46
2024-03-13T08:02:04.149Z,10.39
2024-03-13T08:03:04.064Z,10.42
2024-03-13T08:04:04.126Z,10.48
2024-03-13T08:05:04.046Z,10.58
2024-03-13T09:06:02.600Z,14.61
2024-03-13T09:07:01.951Z,14.55
2024-03-13T09:08:02.002Z,14.46
2024-03-13T09:09:01.783Z,14.38
2024-03-13T09:10:01.688Z,14.29
2024-03-13T09:11:01.721Z,14.12
2024-03-13T09:12:01.749Z,14.13
2024-03-13T09:13:01.563Z,14.22
2024-03-13T09:14:01.550Z,14.33
2024-03-13T09:15:02.231Z,14.35
2024-03-13T09:16:01.433Z,14.35
2024-03-13T09:17:01.377Z,14.27
2024-03-13T09:18:01.484Z,14.25
2024-03-13T09:19:01.391Z,14.31
2024-03-13T09:20:01.193Z,14.43
2024-03-13T09:21:01.283Z,14.47
2024-03-13T09:22:02.024Z,14.51
2024-03-13T09:23:01.647Z,14.37
2024-03-13T09:24:01.044Z,14.36
2024-03-13T09:25:00.943Z,14.32
2024-03-13T09:26:00.918Z,14.26
2024-03-13T09:27:01.819Z,14.27
2024-03-13T09:28:00.823Z,14.26
2024-03-13T09:29:00.801Z,14.28
2024-03-13T09:30:00.903Z,14.38
2024-03-13T09:31:01.604Z,14.75
2024-03-13T09:32:01.151Z,14.85
2024-03-13T09:33:00.975Z,14.80
2024-03-13T09:34:00.865Z,14.66
2024-03-13T09:35:00.635Z,14.74
2024-03-13T09:36:00.721Z,15.04
2024-03-13T09:37:01.150Z,15.41
2024-03-13T09:38:00.590Z,15.52
2024-03-13T09:39:00.911Z,15.16
2024-03-13T09:40:00.593Z,15.06
2024-03-13T09:41:00.571Z,15.29
2024-03-13T09:42:00.713Z,15.26
2024-03-13T09:43:00.604Z,15.35
2024-03-13T09:44:00.690Z,15.67
2024-03-13T09:45:00.736Z,15.88
2024-03-13T09:46:00.482Z,16.23
2024-03-13T09:47:00.683Z,16.65
2024-03-13T09:48:00.545Z,16.97
2024-03-13T09:49:00.582Z,17.26
2024-03-13T09:50:00.416Z,17.55
2024-03-13T09:52:00.856Z,17.78
2024-03-13T09:53:00.208Z,17.79
2024-03-13T09:54:00.157Z,17.86
2024-03-13T09:54:59.979Z,17.76
2024-03-13T09:55:59.897Z,17.50
2024-03-13T09:57:00.368Z,17.62
2024-03-13T09:57:59.800Z,17.84
2024-03-13T09:58:59.711Z,18.21
2024-03-13T09:59:59.671Z,18.26
2024-03-13T10:00:59.611Z,18.23
2024-03-13T10:01:59.622Z,18.21
2024-03-13T10:02:59.472Z,18.18
2024-03-13T10:03:59.374Z,18.12
2024-03-13T10:04:59.264Z,18.10
2024-03-13T10:05:59.203Z,18.23
2024-03-13T10:06:59.449Z,18.25
2024-03-13T10:07:59.460Z,18.27
2024-03-13T10:08:59.002Z,18.11
2024-03-13T10:09:58.858Z,18.07
2024-03-13T10:10:59.073Z,17.98
2024-03-13T10:11:58.792Z,18.03
2024-03-13T10:12:58.737Z,18.25
2024-03-13T10:13:58.581Z,18.34
2024-03-13T10:14:58.513Z,18.55
2024-03-13T10:15:58.394Z,18.48
2024-03-13T10:17:00.652Z,18.35
2024-03-13T10:17:58.709Z,18.36
2024-03-13T10:18:58.184Z,18.33
2024-03-13T10:19:58.013Z,18.57
2024-03-13T10:20:57.938Z,18.51
2024-03-13T10:21:57.845Z,18.55
2024-03-13T10:22:57.652Z,18.87
2024-03-13T10:23:57.729Z,19.33
2024-03-13T10:24:57.530Z,19.27
2024-03-13T10:25:57.369Z,19.07
2024-03-13T10:26:57.257Z,19.12
2024-03-13T10:27:57.689Z,18.97
2024-03-13T10:28:57.076Z,18.86
2024-03-13T10:29:57.009Z,19.05
2024-03-13T10:30:56.945Z,19.27
2024-03-13T10:31:56.823Z,19.59
2024-03-13T10:32:56.845Z,20.01
2024-03-13T10:33:56.743Z,20.19
2024-03-13T10:34:59.112Z,20.24
2024-03-13T10:35:56.309Z,20.19
2024-03-13T10:37:05.116Z,20.24
2024-03-13T10:37:57.142Z,20.19
2024-03-13T10:38:56.038Z,20.36
2024-03-13T10:39:55.792Z,20.67
2024-03-13T10:40:56.683Z,20.48
2024-03-13T10:41:55.609Z,20.58
2024-03-13T10:42:55.668Z,20.63
2024-03-13T10:43:55.206Z,20.47
2024-03-13T10:44:55.197Z,20.30
2024-03-13T10:45:55.166Z,20.35
2024-03-13T10:46:55.624Z,20.31
2024-03-13T10:47:55.241Z,20.31
2024-03-13T10:48:54.693Z,20.44
2024-03-13T10:49:54.929Z,20.41
2024-03-13T10:50:55.539Z,20.34
2024-03-13T10:51:54.231Z,20.21
2024-03-13T10:52:54.682Z,20.31
2024-03-13T10:53:54.218Z,20.21
2024-03-13T10:54:54.080Z,20.11
2024-03-13T10:55:54.050Z,20.16
2024-03-13T10:56:54.006Z,19.61
2024-03-13T10:57:53.863Z,19.29
2024-03-13T10:58:53.791Z,19.23
2024-03-13T10:59:53.754Z,19.28
2024-03-13T11:00:53.698Z,19.31
2024-03-13T11:01:53.727Z,19.37
2024-03-13T11:02:53.745Z,19.37
2024-03-13T11:03:53.512Z,19.30
2024-03-13T11:04:53.397Z,18.91
2024-03-13T11:05:53.389Z,18.64
2024-03-13T11:06:53.360Z,18.75
2024-03-13T11:07:53.677Z,19.04
2024-03-13T11:08:54.153Z,19.11
2024-03-13T11:09:53.225Z,19.16
2024-03-13T11:11:06.300Z,19.32
2024-03-13T11:11:54.823Z,19.27
2024-03-13T11:12:53.387Z,19.28
2024-03-13T11:13:52.884Z,19.47
2024-03-13T11:14:52.750Z,19.58
2024-03-13T11:15:52.620Z,19.60
2024-03-13T11:16:52.530Z,19.66
2024-03-13T11:17:52.859Z,19.73
2024-03-13T11:18:52.562Z,19.77
2024-03-13T11:19:52.278Z,19.93
2024-03-13T11:20:52.180Z,19.96
2024-03-13T11:21:52.032Z,20.07
2024-03-13T11:22:52.180Z,20.15
2024-03-13T11:23:51.920Z,20.37
2024-03-13T11:24:51.877Z,20.52
2024-03-13T11:25:51.741Z,20.53
2024-03-13T11:26:51.549Z,20.64
2024-03-13T11:27:51.523Z,20.83
2024-03-13T11:28:51.794Z,20.76
2024-03-13T11:29:51.375Z,20.86
2024-03-13T11:30:51.147Z,20.84
2024-03-13T11:31:51.104Z,20.87
2024-03-13T11:32:51.026Z,20.97
2024-03-13T11:33:51.501Z,20.92
2024-03-13T11:34:50.772Z,20.93
2024-03-13T11:35:50.660Z,21.04
2024-03-13T11:36:50.590Z,20.97
2024-03-13T11:37:50.371Z,20.84
2024-03-13T11:38:50.755Z,20.87
2024-03-13T11:39:50.153Z,20.84
2024-03-13T11:40:50.165Z,20.63
2024-03-13T11:41:50.076Z,20.54
2024-03-13T11:42:49.895Z,20.61
2024-03-13T11:43:50.231Z,20.79
2024-03-13T11:44:49.583Z,20.76
2024-03-13T11:45:49.465Z,20.82
2024-03-13T11:46:49.432Z,20.69
2024-03-13T11:47:49.610Z,20.78
2024-03-13T11:48:49.381Z,20.71
2024-03-13T11:49:49.147Z,20.69
2024-03-13T11:50:49.010Z,20.68
2024-03-13T11:51:48.808Z,20.78
2024-03-13T11:52:48.751Z,20.80
2024-03-13T11:53:48.783Z,20.95
2024-03-13T11:54:48.588Z,21.10
2024-03-13T11:55:48.405Z,21.31
2024-03-13T11:56:48.339Z,21.51
2024-03-13T11:57:48.170Z,21.78
2024-03-13T11:58:48.251Z,21.68
2024-03-13T11:59:48.278Z,21.54
2024-03-13T12:00:47.835Z,21.48
2024-03-13T12:01:47.685Z,21.44
2024-03-13T12:02:47.680Z,21.55
2024-03-13T12:03:47.506Z,21.60
2024-03-13T12:04:47.676Z,21.61
2024-03-13T12:05:47.452Z,21.73
2024-03-13T12:06:48.589Z,21.84
2024-03-13T12:07:46.987Z,22.07
2024-03-13T12:08:47.240Z,21.98
2024-03-13T12:09:46.756Z,22.16
2024-03-13T12:10:46.660Z,22.38
2024-03-13T12:11:46.513Z,22.36
2024-03-13T12:12:46.374Z,22.36
2024-03-13T12:13:46.676Z,22.44
2024-03-13T12:14:46.562Z,22.60
2024-03-13T12:15:45.902Z,22.53
2024-03-13T12:16:45.842Z,22.43
2024-03-13T12:17:45.777Z,22.24
2024-03-13T12:18:45.790Z,22.16
2024-03-13T12:19:45.521Z,22.22
2024-03-13T12:20:45.468Z,22.33
2024-03-13T12:21:45.291Z,22.35
2024-03-13T12:22:45.142Z,22.47
2024-03-13T12:23:45.227Z,22.52
2024-03-13T12:24:44.868Z,22.66
2024-03-13T12:25:44.817Z,22.74
2024-03-13T12:26:44.692Z,22.72
2024-03-13T12:27:44.526Z,22.63
2024-03-13T12:28:44.726Z,22.57
2024-03-13T12:29:44.224Z,22.53
2024-03-13T12:30:44.065Z,22.55
2024-03-13T12:31:44.014Z,22.64
2024-03-13T12:32:43.885Z,22.83
2024-03-13T12:33:44.302Z,22.87
2024-03-13T12:34:43.510Z,22.74
2024-03-13T12:35:43.549Z,22.70
2024-03-13T12:36:43.447Z,22.67
2024-03-13T12:37:43.203Z,22.62
2024-03-13T12:38:43.111Z,22.63
2024-03-13T12:39:42.949Z,22.58
2024-03-13T12:40:42.936Z,22.78
2024-03-13T12:41:42.755Z,22.87
2024-03-13T12:42:42.578Z,22.82
2024-03-13T12:43:45.784Z,22.80
2024-03-13T12:44:42.296Z,22.74
2024-03-13T12:45:42.129Z,22.68
2024-03-13T12:46:41.957Z,22.67
2024-03-13T12:47:41.873Z,22.70
2024-03-13T12:48:41.705Z,22.76
2024-03-13T12:49:41.442Z,22.97
2024-03-13T12:50:41.284Z,23.01
2024-03-13T12:51:41.152Z,22.92
2024-03-13T12:52:40.891Z,23.02
2024-03-13T12:53:41.290Z,23.04
2024-03-13T12:54:40.543Z,22.74
2024-03-13T12:55:40.346Z,22.75
2024-03-13T12:56:40.208Z,22.64
2024-03-13T12:57:40.076Z,22.47
2024-03-13T12:58:39.961Z,22.53
2024-03-13T12:59:40.709Z,22.59
2024-03-13T13:00:39.557Z,22.48
2024-03-13T13:01:39.493Z,22.35
2024-03-13T13:02:39.277Z,22.43
2024-03-13T13:03:39.140Z,22.45
2024-03-13T13:04:38.976Z,22.47
2024-03-13T13:05:40.826Z,22.45
2024-03-13T13:06:38.717Z,22.29
2024-03-13T13:07:38.578Z,22.33
2024-03-13T13:08:38.499Z,22.26
2024-03-13T13:09:38.216Z,22.36
2024-03-13T13:10:38.054Z,22.37
2024-03-13T13:11:37.996Z,22.31
2024-03-13T13:12:37.879Z,22.42
2024-03-13T13:13:37.665Z,22.62
2024-03-13T13:14:37.477Z,22.27
2024-03-13T13:15:37.390Z,22.28
2024-03-13T13:16:37.181Z,22.32
2024-03-13T13:17:37.069Z,22.39
2024-03-13T13:18:37.083Z,22.40
2024-03-13T13:19:36.718Z,22.41
2024-03-13T13:20:36.572Z,22.39
2024-03-13T13:21:36.459Z,22.36
2024-03-13T13:22:36.336Z,22.22
2024-03-13T13:23:36.237Z,22.41
2024-03-13T13:24:35.982Z,22.37
2024-03-13T13:25:35.886Z,22.32
2024-03-13T13:26:35.780Z,22.25
2024-03-13T13:27:35.546Z,22.38
2024-03-13T13:28:35.589Z,22.45
2024-03-13T13:29:35.263Z,22.45
2024-03-13T13:30:35.125Z,22.45
2024-03-13T13:31:34.956Z,22.68
2024-03-13T13:32:34.842Z,22.74
2024-03-13T13:33:34.883Z,22.88
2024-03-13T13:34:34.408Z,22.89
2024-03-13T13:35:34.289Z,22.99
2024-03-13T13:36:34.099Z,23.12
2024-03-13T13:37:33.965Z,23.04
2024-03-13T13:39:09.524Z,22.77
2024-03-13T13:40:09.367Z,22.83
2024-03-13T13:41:09.543Z,22.83
2024-03-13T13:42:09.387Z,22.57
2024-03-13T13:43:09.348Z,22.34
2024-03-13T13:44:09.359Z,22.22
2024-03-13T13:45:09.502Z,22.19
2024-03-13T13:46:09.376Z,22.14
2024-03-13T13:47:09.447Z,22.00
2024-03-13T13:48:09.413Z,22.02
2024-03-13T13:49:09.623Z,22.04
2024-03-13T13:50:09.396Z,21.89
2024-03-13T13:51:09.434Z,21.75
2024-03-13T13:52:09.413Z,21.68
2024-03-13T13:53:09.418Z,21.39
2024-03-13T13:54:09.585Z,21.10
2024-03-13T13:55:09.468Z,21.03
2024-03-13T13:56:09.528Z,21.01
2024-03-13T13:57:09.620Z,20.89
2024-03-13T13:58:09.580Z,20.76
2024-03-13T13:59:09.590Z,20.56
2024-03-13T14:00:10.479Z,20.48
2024-03-13T14:01:09.695Z,20.45
2024-03-13T14:02:09.672Z,20.32
2024-03-13T14:03:09.769Z,20.28
2024-03-13T14:04:09.861Z,20.25
2024-03-13T14:05:09.825Z,20.15
2024-03-13T14:06:09.885Z,20.01
2024-03-13T14:07:10.394Z,19.87
2024-03-13T14:08:09.968Z,19.68